Time;durP1;ratioP1;P1;durP2;ratioP2;P2;SDS_P1;SDS_P2;PMS_P1;PMS_P2;Temp;Humidity;BMP_temperature;BMP_pressure;BME280_temperature;BME280_humidity;BME280_pressure;Samples;Min_cycle;Max_cycle;Signal;HPM_P1;HPM_P2
2021/08/04 00:01:20;;;;;;;1.33;1.00;;;16.90;93.70;;;;;;5016469;28;20475;-86
2021/08/04 00:03:45;;;;;;;2.17;1.00;;;16.90;93.60;;;;;;5015485;28;20042;-88
2021/08/04 00:06:11;;;;;;;1.65;0.90;;;16.90;93.50;;;;;;5015855;28;20049;-88
2021/08/04 00:08:36;;;;;;;2.95;1.00;;;16.90;93.50;;;;;;5021154;28;20075;-91
2021/08/04 00:11:03;;;;;;;2.60;1.10;;;16.90;93.30;;;;;;5018003;28;20041;-90
2021/08/04 00:13:28;;;;;;;1.00;0.90;;;16.90;93.40;;;;;;5018079;28;20032;-89
2021/08/04 00:15:54;;;;;;;2.47;0.90;;;16.90;93.30;;;;;;5020461;28;20049;-91
2021/08/04 00:18:20;;;;;;;1.45;1.00;;;16.80;93.20;;;;;;5021853;28;20018;-88
2021/08/04 00:20:45;;;;;;;3.10;1.13;;;16.80;93.20;;;;;;5026938;28;20014;-90
2021/08/04 00:23:11;;;;;;;1.83;1.10;;;16.70;93.30;;;;;;5030422;28;20466;-90
2021/08/04 00:25:37;;;;;;;1.45;0.95;;;16.70;93.40;;;;;;5018608;28;20024;-88
2021/08/04 00:28:02;;;;;;;2.63;1.15;;;16.70;93.30;;;;;;5015348;28;20014;-90
2021/08/04 00:30:28;;;;;;;3.30;1.10;;;16.70;93.40;;;;;;5016065;28;20018;-93
2021/08/04 00:32:54;;;;;;;2.17;1.10;;;16.60;93.50;;;;;;5016387;28;20340;-92
2021/08/04 00:35:21;;;;;;;3.33;1.20;;;16.60;93.60;;;;;;5013117;28;20589;-89
2021/08/04 00:37:46;;;;;;;2.65;1.08;;;16.60;93.70;;;;;;5017114;28;20056;-88
2021/08/04 00:40:13;;;;;;;3.63;1.10;;;16.50;93.60;;;;;;5016335;28;20029;-89
2021/08/04 00:42:38;;;;;;;1.55;0.93;;;16.60;93.50;;;;;;5016724;28;20034;-87
2021/08/04 00:45:05;;;;;;;1.50;0.98;;;16.60;93.60;;;;;;5016259;28;20033;-85
2021/08/04 00:47:31;;;;;;;1.77;1.20;;;16.60;93.60;;;;;;5015555;28;20077;-89
2021/08/04 00:49:56;;;;;;;1.70;1.08;;;16.60;93.50;;;;;;5015440;28;20382;-89
2021/08/04 00:52:22;;;;;;;2.65;1.10;;;16.60;93.60;;;;;;5014510;28;20030;-88
2021/08/04 00:54:48;;;;;;;3.55;1.30;;;16.50;93.50;;;;;;5015428;28;20022;-88
2021/08/04 00:57:13;;;;;;;1.95;1.25;;;16.50;93.60;;;;;;5014784;28;20026;-89
2021/08/04 00:59:39;;;;;;;1.80;0.93;;;16.50;93.70;;;;;;5016427;28;20025;-88
2021/08/04 01:02:09;;;;;;;3.13;0.90;;;16.50;93.70;;;;;;5015920;28;20060;-84
2021/08/04 01:04:49;;;;;;;1.75;1.35;;;16.50;93.70;;;;;;5015528;28;20077;-89
2021/08/04 01:07:25;;;;;;;2.03;1.00;;;16.50;93.80;;;;;;5014661;28;20025;-89
2021/08/04 01:10:14;;;;;;;1.63;1.20;;;16.50;93.80;;;;;;5015275;28;20060;-88
2021/08/04 01:12:50;;;;;;;4.88;1.13;;;16.50;93.70;;;;;;5015237;28;20036;-88
2021/08/04 01:15:17;;;;;;;3.25;1.10;;;16.50;93.70;;;;;;5015623;28;20017;-89
2021/08/04 01:17:47;;;;;;;2.92;1.17;;;16.40;93.80;;;;;;5015605;28;20072;-89
2021/08/04 01:20:18;;;;;;;2.10;1.10;;;16.50;93.80;;;;;;5015741;28;20030;-89
2021/08/04 01:23:06;;;;;;;1.85;1.15;;;16.40;93.90;;;;;;5016586;28;20036;-93
2021/08/04 01:25:53;;;;;;;2.55;1.10;;;16.40;93.90;;;;;;5015279;28;20018;-93
2021/08/04 01:28:43;;;;;;;4.13;1.20;;;16.40;94.00;;;;;;5014932;28;20025;-94
2021/08/04 01:31:11;;;;;;;2.67;1.08;;;16.50;94.00;;;;;;5015291;28;20072;-94
2021/08/04 01:33:40;;;;;;;1.63;1.23;;;16.50;93.90;;;;;;5014987;28;20390;-93
2021/08/04 01:36:10;;;;;;;1.90;1.20;;;16.40;93.90;;;;;;5024083;28;20068;-85
2021/08/04 01:38:37;;;;;;;1.60;1.20;;;16.40;94.00;;;;;;5035103;28;20025;-95
2021/08/04 01:41:05;;;;;;;2.30;1.17;;;16.40;94.00;;;;;;5034398;28;20035;-95
2021/08/04 01:43:32;;;;;;;4.68;1.55;;;16.50;94.00;;;;;;5033911;28;20041;-94
2021/08/04 01:45:59;;;;;;;1.98;1.25;;;16.50;94.00;;;;;;5035397;28;20112;-94
2021/08/04 01:48:25;;;;;;;4.25;1.13;;;16.50;94.00;;;;;;5033736;28;20025;-95
2021/08/04 01:50:53;;;;;;;1.20;1.00;;;16.50;94.00;;;;;;5035310;28;20021;-94
2021/08/04 01:53:21;;;;;;;2.17;1.02;;;16.50;94.00;;;;;;5033868;28;20025;-94
2021/08/04 01:55:47;;;;;;;9.43;1.08;;;16.50;94.00;;;;;;5034240;28;20021;-95
2021/08/04 01:58:13;;;;;;;1.30;1.00;;;16.40;93.90;;;;;;5034146;28;20025;-95
2021/08/04 02:00:38;;;;;;;1.77;1.10;;;16.40;94.00;;;;;;5034688;28;20036;-95
2021/08/04 02:03:04;;;;;;;1.50;1.20;;;16.50;94.00;;;;;;5034044;28;20161;-94
2021/08/04 02:05:30;;;;;;;1.75;1.13;;;16.40;94.00;;;;;;5030129;28;20214;-94
2021/08/04 02:08:27;;;;;;;3.20;1.20;;;16.40;94.00;;;;;;5014191;28;20060;-88
2021/08/04 02:11:27;;;;;;;2.28;1.10;;;16.40;94.20;;;;;;5014236;28;20022;-92
2021/08/04 02:13:59;;;;;;;3.45;1.30;;;16.40;94.10;;;;;;5014611;28;20033;-92
2021/08/04 02:16:31;;;;;;;2.22;1.08;;;16.40;94.00;;;;;;5014983;28;20034;-91
2021/08/04 02:19:11;;;;;;;1.48;1.00;;;16.40;94.10;;;;;;5014784;28;20405;-92
2021/08/04 02:21:41;;;;;;;1.90;1.15;;;16.40;94.00;;;;;;4996036;28;20035;-92
2021/08/04 02:24:07;;;;;;;1.90;1.13;;;16.50;94.00;;;;;;4996849;28;20094;-92
2021/08/04 02:26:34;;;;;;;2.22;1.23;;;16.50;93.90;;;;;;4998221;28;20070;-92
2021/08/04 02:29:01;;;;;;;4.22;1.23;;;16.50;93.90;;;;;;4995594;28;20029;-93
2021/08/04 02:31:27;;;;;;;1.52;1.10;;;16.40;93.80;;;;;;4997037;28;20096;-90
2021/08/04 02:33:54;;;;;;;3.47;1.40;;;16.40;93.90;;;;;;4999012;28;20096;-90
2021/08/04 02:36:20;;;;;;;5.35;1.42;;;16.40;93.90;;;;;;5008820;28;20044;-90
2021/08/04 02:38:47;;;;;;;2.85;1.40;;;16.40;93.90;;;;;;5016728;28;20041;-89
2021/08/04 02:41:13;;;;;;;3.58;1.48;;;16.40;93.90;;;;;;5015451;28;20047;-89
2021/08/04 02:43:39;;;;;;;2.78;1.40;;;16.40;93.90;;;;;;5014707;28;20451;-88
2021/08/04 02:46:05;;;;;;;2.38;1.38;;;16.40;94.00;;;;;;5014409;28;20052;-90
2021/08/04 02:48:31;;;;;;;2.28;1.25;;;16.40;94.00;;;;;;5015797;28;20606;-92
2021/08/04 02:51:04;;;;;;;2.13;1.20;;;16.40;94.00;;;;;;5016476;28;20122;-90
2021/08/04 02:53:30;;;;;;;3.00;1.25;;;16.40;93.90;;;;;;5014877;28;20032;-90
2021/08/04 02:55:56;;;;;;;2.03;1.40;;;16.40;93.90;;;;;;5013890;28;20449;-90
2021/08/04 02:58:22;;;;;;;3.25;1.45;;;16.40;94.00;;;;;;5014297;28;20092;-90
2021/08/04 03:00:48;;;;;;;2.20;1.52;;;16.40;94.00;;;;;;5013767;28;20455;-91
2021/08/04 03:03:15;;;;;;;1.40;1.30;;;16.30;94.00;;;;;;5012129;28;20042;-91
2021/08/04 03:05:40;;;;;;;2.35;1.30;;;16.30;94.00;;;;;;5012812;28;20045;-91
2021/08/04 03:08:07;;;;;;;2.03;1.25;;;16.40;94.10;;;;;;5013297;28;20447;-91
2021/08/04 03:10:33;;;;;;;3.72;1.40;;;16.40;94.10;;;;;;5012836;28;20036;-91
2021/08/04 03:12:59;;;;;;;4.35;1.30;;;16.40;94.10;;;;;;5013215;28;20518;-91
2021/08/04 03:15:25;;;;;;;2.08;1.20;;;16.30;94.10;;;;;;5012606;28;20355;-91
2021/08/04 03:17:51;;;;;;;1.90;1.40;;;16.30;94.10;;;;;;5012758;28;20033;-90
2021/08/04 03:20:16;;;;;;;2.58;1.30;;;16.30;94.20;;;;;;5012715;28;20033;-89
2021/08/04 03:22:46;;;;;;;4.25;1.40;;;16.40;94.20;;;;;;5013627;28;20022;-91
2021/08/04 03:25:13;;;;;;;2.92;1.40;;;16.30;94.20;;;;;;5014101;28;20021;-87
2021/08/04 03:27:39;;;;;;;4.03;1.40;;;16.30;94.20;;;;;;5014226;28;20049;-89
2021/08/04 03:30:06;;;;;;;1.80;1.23;;;16.30;94.20;;;;;;5013700;28;20034;-95
2021/08/04 03:32:31;;;;;;;1.63;1.40;;;16.30;94.20;;;;;;5012785;28;20083;-95
2021/08/04 03:34:57;;;;;;;3.15;1.55;;;16.30;94.20;;;;;;5013934;28;20024;-96
2021/08/04 03:37:23;;;;;;;6.00;1.40;;;16.30;94.30;;;;;;5013080;28;20018;-95
2021/08/04 03:39:48;;;;;;;2.75;1.30;;;16.20;94.20;;;;;;5012648;28;20026;-94
2021/08/04 03:42:16;;;;;;;2.25;1.45;;;16.20;94.20;;;;;;5012639;28;20022;-94
2021/08/04 03:44:42;;;;;;;3.90;1.48;;;16.20;94.20;;;;;;5013395;28;20061;-95
2021/08/04 03:47:08;;;;;;;3.95;1.40;;;16.20;94.20;;;;;;5012894;28;20029;-94
2021/08/04 03:49:33;;;;;;;2.72;1.30;;;16.20;94.20;;;;;;5013576;28;20048;-94
2021/08/04 03:51:59;;;;;;;3.22;1.40;;;16.20;94.20;;;;;;5017323;28;20029;-90
2021/08/04 03:54:28;;;;;;;1.98;1.10;;;16.20;94.20;;;;;;5015946;28;20104;-90
2021/08/04 03:56:53;;;;;;;3.33;1.52;;;16.20;94.20;;;;;;5033241;28;20021;-90
2021/08/04 03:59:19;;;;;;;2.05;1.10;;;16.20;94.20;;;;;;5015961;28;20026;-91
2021/08/04 04:01:45;;;;;;;1.83;1.10;;;16.20;94.20;;;;;;5032988;28;20133;-90
2021/08/04 04:04:11;;;;;;;3.60;1.17;;;16.10;94.10;;;;;;5016065;28;20046;-91
2021/08/04 04:06:36;;;;;;;5.70;1.80;;;16.20;94.20;;;;;;5045491;28;20022;-90
2021/08/04 04:09:02;;;;;;;2.92;1.30;;;16.20;94.20;;;;;;5036262;28;20442;-91
2021/08/04 04:11:29;;;;;;;2.38;1.50;;;16.20;94.10;;;;;;5035679;28;20021;-90
2021/08/04 04:13:54;;;;;;;1.77;1.40;;;16.10;94.40;;;;;;5036198;28;20017;-96
2021/08/04 04:16:21;;;;;;;3.50;1.38;;;16.20;94.10;;;;;;5035471;28;20026;-91
2021/08/04 04:18:47;;;;;;;4.30;1.42;;;16.20;94.10;;;;;;5036161;28;20051;-92
2021/08/04 04:21:13;;;;;;;2.08;1.25;;;16.20;94.10;;;;;;5036247;28;20021;-92
2021/08/04 04:23:39;;;;;;;2.35;1.50;;;16.20;94.00;;;;;;5035709;28;20037;-91
2021/08/04 04:26:05;;;;;;;4.00;1.60;;;16.20;94.00;;;;;;5036225;28;20025;-91
2021/08/04 04:28:31;;;;;;;4.30;1.80;;;16.20;94.00;;;;;;5035751;28;20523;-91
2021/08/04 04:30:57;;;;;;;2.63;1.33;;;16.20;93.90;;;;;;5036089;28;20017;-92
2021/08/04 04:33:22;;;;;;;4.97;1.60;;;16.20;94.00;;;;;;5036468;28;20034;-92
2021/08/04 04:35:48;;;;;;;3.40;1.42;;;16.30;94.00;;;;;;5031395;28;20069;-92
2021/08/04 04:38:14;;;;;;;5.13;1.50;;;16.30;93.90;;;;;;5016114;28;20018;-92
2021/08/04 04:40:40;;;;;;;2.60;1.60;;;16.30;93.90;;;;;;5016423;28;20414;-92
2021/08/04 04:43:06;;;;;;;5.13;1.67;;;16.30;93.90;;;;;;5015854;28;20030;-92
2021/08/04 04:45:31;;;;;;;2.03;1.20;;;16.30;93.60;;;;;;5016080;28;20424;-92
2021/08/04 04:47:57;;;;;;;2.50;1.27;;;16.30;93.60;;;;;;5015646;28;20493;-92
2021/08/04 04:50:23;;;;;;;2.03;1.30;;;16.30;93.50;;;;;;5015603;28;20057;-93
2021/08/04 04:52:48;;;;;;;3.75;1.20;;;16.40;93.60;;;;;;5016706;28;20112;-93
2021/08/04 04:55:15;;;;;;;4.40;1.50;;;16.40;93.50;;;;;;5015898;28;20025;-92
2021/08/04 04:57:41;;;;;;;2.58;1.20;;;16.50;93.50;;;;;;5015417;28;20026;-93
2021/08/04 05:00:08;;;;;;;2.30;1.50;;;16.50;93.50;;;;;;5015628;28;20032;-92
2021/08/04 05:02:40;;;;;;;2.58;1.38;;;16.50;93.60;;;;;;5013836;28;20033;-94
2021/08/04 05:05:06;;;;;;;1.48;1.23;;;16.50;93.50;;;;;;5015402;28;20022;-92
2021/08/04 05:07:32;;;;;;;1.30;0.95;;;16.60;93.40;;;;;;5014536;28;20509;-93
2021/08/04 05:09:58;;;;;;;1.67;1.17;;;16.60;93.40;;;;;;5016541;28;20137;-92
2021/08/04 05:12:24;;;;;;;1.98;1.15;;;16.60;93.40;;;;;;5015228;28;20026;-92
2021/08/04 05:14:50;;;;;;;1.38;1.20;;;16.60;93.40;;;;;;5015289;28;20022;-92
2021/08/04 05:17:15;;;;;;;1.92;1.40;;;16.60;93.40;;;;;;5015520;28;20058;-93
2021/08/04 05:19:41;;;;;;;2.00;1.23;;;16.60;93.20;;;;;;5014716;28;20027;-92
2021/08/04 05:22:08;;;;;;;1.65;1.38;;;16.60;93.20;;;;;;5015279;28;20022;-91
2021/08/04 05:24:34;;;;;;;3.22;1.15;;;16.50;93.20;;;;;;5014685;28;20026;-91
2021/08/04 05:27:00;;;;;;;3.20;1.50;;;16.50;93.30;;;;;;5014949;28;20044;-91
2021/08/04 05:29:27;;;;;;;2.45;1.20;;;16.60;93.40;;;;;;5014286;28;20069;-92
2021/08/04 05:31:52;;;;;;;3.20;1.40;;;16.50;93.50;;;;;;5014946;28;20085;-92
2021/08/04 05:34:18;;;;;;;3.97;1.60;;;16.50;93.60;;;;;;5014264;28;20026;-88
2021/08/04 05:36:44;;;;;;;2.75;1.45;;;16.60;93.60;;;;;;5014728;28;20072;-93
2021/08/04 05:39:10;;;;;;;4.30;1.90;;;16.50;93.60;;;;;;5015880;28;20068;-92
2021/08/04 05:41:36;;;;;;;4.85;1.48;;;16.50;93.60;;;;;;5015393;28;20038;-93
2021/08/04 05:44:02;;;;;;;5.07;2.10;;;16.60;93.60;;;;;;5014301;28;20030;-92
2021/08/04 05:46:28;;;;;;;4.90;1.90;;;16.60;93.50;;;;;;5013977;28;20030;-93
2021/08/04 05:48:54;;;;;;;3.70;1.95;;;16.70;93.40;;;;;;5014065;28;20030;-92
2021/08/04 05:51:19;;;;;;;5.15;1.80;;;16.70;93.20;;;;;;5013662;28;20567;-90
2021/08/04 05:53:45;;;;;;;3.15;2.10;;;16.80;93.20;;;;;;5015375;28;20107;-90
2021/08/04 05:56:11;;;;;;;4.65;1.60;;;16.70;93.20;;;;;;5014253;28;20026;-90
2021/08/04 05:58:36;;;;;;;4.03;1.98;;;16.70;93.20;;;;;;5013686;28;20428;-91
2021/08/04 06:01:02;;;;;;;3.75;1.70;;;16.80;93.30;;;;;;5013942;28;20092;-92
2021/08/04 06:03:28;;;;;;;4.03;1.60;;;16.80;93.20;;;;;;5014372;28;20046;-93
2021/08/04 06:05:53;;;;;;;2.35;1.42;;;16.80;93.00;;;;;;5014434;28;20017;-92
2021/08/04 06:08:22;;;;;;;4.10;1.60;;;16.80;93.10;;;;;;5013884;28;20048;-87
2021/08/04 06:10:48;;;;;;;3.75;1.85;;;16.80;92.90;;;;;;5014853;28;20336;-90
2021/08/04 06:13:14;;;;;;;2.08;1.45;;;16.80;92.70;;;;;;5013999;28;20481;-92
2021/08/04 06:15:40;;;;;;;3.28;1.30;;;16.70;92.40;;;;;;5013943;28;20029;-91
2021/08/04 06:18:05;;;;;;;5.28;1.50;;;16.80;92.20;;;;;;5017398;28;20026;-91
2021/08/04 06:20:31;;;;;;;2.88;1.50;;;16.80;92.00;;;;;;5015750;28;20042;-90
2021/08/04 06:22:57;;;;;;;1.95;1.30;;;16.80;92.00;;;;;;5014310;28;20026;-90
2021/08/04 06:25:22;;;;;;;2.80;1.17;;;16.90;91.90;;;;;;5013550;28;20112;-92
2021/08/04 06:27:49;;;;;;;4.47;1.48;;;16.90;91.90;;;;;;5016012;28;20018;-94
2021/08/04 06:30:15;;;;;;;2.10;1.70;;;16.90;91.90;;;;;;5015082;28;20018;-92
2021/08/04 06:32:40;;;;;;;3.78;1.65;;;16.90;91.90;;;;;;5013595;28;20034;-94
2021/08/04 06:35:06;;;;;;;3.45;1.63;;;16.90;91.80;;;;;;5014867;28;20121;-96
2021/08/04 06:37:35;;;;;;;2.13;1.52;;;16.90;91.90;;;;;;5025637;28;20049;-95
2021/08/04 06:40:00;;;;;;;2.70;1.60;;;16.90;91.90;;;;;;5029281;28;20030;-95
2021/08/04 06:42:26;;;;;;;2.22;1.30;;;16.90;92.10;;;;;;5014973;28;20447;-94
2021/08/04 06:44:52;;;;;;;2.70;1.50;;;17.00;91.90;;;;;;5014697;28;20466;-90
2021/08/04 06:47:17;;;;;;;2.17;1.60;;;17.00;91.70;;;;;;5013568;28;20463;-89
2021/08/04 06:49:43;;;;;;;1.40;1.20;;;16.90;91.50;;;;;;5013215;28;20068;-89
2021/08/04 06:52:08;;;;;;;4.60;1.50;;;16.90;91.70;;;;;;5013454;28;20371;-89
2021/08/04 06:54:34;;;;;;;4.40;1.50;;;17.00;91.50;;;;;;5014247;28;20430;-90
2021/08/04 06:57:00;;;;;;;2.53;1.38;;;17.10;91.20;;;;;;5014747;28;20018;-91
2021/08/04 06:59:26;;;;;;;2.58;1.52;;;17.20;90.90;;;;;;5013499;28;20018;-93
2021/08/04 07:01:51;;;;;;;2.85;1.33;;;17.20;90.80;;;;;;5014745;28;20402;-92
2021/08/04 07:04:17;;;;;;;2.78;1.27;;;17.30;91.00;;;;;;5014836;28;20366;-93
2021/08/04 07:07:00;;;;;;;2.38;1.45;;;17.30;90.80;;;;;;5012964;28;20028;-92
2021/08/04 07:09:26;;;;;;;4.07;1.42;;;17.40;90.40;;;;;;5012982;28;20022;-93
2021/08/04 07:11:52;;;;;;;3.70;1.40;;;17.50;90.20;;;;;;5013697;28;20103;-93
2021/08/04 07:14:18;;;;;;;2.42;1.40;;;17.60;89.00;;;;;;5013975;28;20026;-93
2021/08/04 07:16:48;;;;;;;2.28;1.30;;;17.60;87.70;;;;;;5013219;28;20471;-94
2021/08/04 07:19:14;;;;;;;2.13;1.08;;;17.60;87.50;;;;;;5013728;28;20482;-95
2021/08/04 07:21:41;;;;;;;7.13;1.60;;;17.70;87.20;;;;;;5013445;28;20026;-92
2021/08/04 07:24:07;;;;;;;2.33;1.20;;;17.60;87.20;;;;;;5014097;28;20022;-89
2021/08/04 07:26:34;;;;;;;1.70;1.27;;;17.60;87.10;;;;;;5016702;28;20109;-89
2021/08/04 07:29:00;;;;;;;2.45;1.23;;;17.70;86.80;;;;;;5016916;28;20022;-93
2021/08/04 07:31:26;;;;;;;3.92;1.30;;;17.70;86.30;;;;;;5017111;28;20018;-92
2021/08/04 07:33:51;;;;;;;2.92;1.30;;;17.70;86.50;;;;;;5017673;28;20025;-93
2021/08/04 07:36:17;;;;;;;1.60;1.35;;;17.70;86.00;;;;;;5017445;28;20028;-89
2021/08/04 07:38:43;;;;;;;2.50;1.40;;;17.70;86.40;;;;;;5013120;28;20058;-93
2021/08/04 07:41:09;;;;;;;3.15;1.33;;;17.80;86.00;;;;;;5017804;28;20120;-91
2021/08/04 07:43:34;;;;;;;3.53;1.38;;;17.80;86.90;;;;;;5016516;28;20083;-90
2021/08/04 07:46:00;;;;;;;2.85;1.90;;;17.80;86.00;;;;;;5016522;28;20094;-91
2021/08/04 07:48:28;;;;;;;2.25;1.35;;;17.90;86.40;;;;;;5017445;28;20501;-88
2021/08/04 07:50:55;;;;;;;1.95;1.45;;;18.00;86.30;;;;;;5017202;28;20391;-90
2021/08/04 07:53:20;;;;;;;3.45;1.70;;;18.10;87.00;;;;;;5016464;28;20032;-90
2021/08/04 07:55:46;;;;;;;2.72;1.50;;;18.20;85.20;;;;;;5016139;28;20025;-95
2021/08/04 07:58:11;;;;;;;2.47;1.23;;;18.20;85.20;;;;;;5016570;28;20466;-90
2021/08/04 08:00:37;;;;;;;3.03;1.42;;;18.20;85.70;;;;;;5015659;28;20025;-88
2021/08/04 08:03:03;;;;;;;2.33;1.40;;;18.30;85.80;;;;;;5032022;28;20061;-89
2021/08/04 08:05:28;;;;;;;1.38;1.13;;;18.30;85.20;;;;;;5016293;28;20022;-89
2021/08/04 08:07:54;;;;;;;2.25;1.60;;;18.50;85.00;;;;;;5016634;28;20470;-89
2021/08/04 08:10:21;;;;;;;2.30;1.60;;;18.50;84.60;;;;;;5016717;28;20073;-95
2021/08/04 08:12:48;;;;;;;5.15;1.15;;;18.50;83.30;;;;;;5018226;28;20037;-93
2021/08/04 08:15:14;;;;;;;3.33;1.23;;;18.50;82.70;;;;;;5016698;28;20368;-96
2021/08/04 08:17:40;;;;;;;1.90;1.20;;;18.60;82.30;;;;;;5015595;28;20026;-91
2021/08/04 08:20:07;;;;;;;7.30;1.60;;;18.60;82.20;;;;;;5016603;28;20045;-92
2021/08/04 08:22:33;;;;;;;2.70;1.63;;;18.70;82.30;;;;;;5016157;28;20036;-85
2021/08/04 08:24:59;;;;;;;2.60;1.38;;;18.70;82.80;;;;;;5015735;28;20030;-86
2021/08/04 08:27:25;;;;;;;2.60;1.70;;;18.70;83.20;;;;;;5015225;28;20518;-86
2021/08/04 08:29:50;;;;;;;4.30;1.30;;;18.80;83.00;;;;;;5014854;28;20030;-95
2021/08/04 08:32:16;;;;;;;2.63;1.40;;;18.80;82.90;;;;;;5037519;28;20036;-95
2021/08/04 08:34:45;;;;;;;2.13;1.38;;;18.80;82.80;;;;;;5023268;28;20451;-96
2021/08/04 08:37:11;;;;;;;3.20;1.60;;;18.70;84.00;;;;;;5117317;23;20081;-94
2021/08/04 08:39:37;;;;;;;3.70;1.50;;;18.80;82.30;;;;;;5041439;28;20029;-93
2021/08/04 08:42:03;;;;;;;3.67;1.27;;;18.80;81.90;;;;;;5020324;28;20030;-93
2021/08/04 08:44:29;;;;;;;2.97;1.40;;;18.90;81.40;;;;;;5017784;28;20165;-84
2021/08/04 08:46:55;;;;;;;2.95;1.40;;;18.90;79.10;;;;;;5016138;28;20026;-88
2021/08/04 08:49:33;;;;;;;2.90;1.60;;;19.00;79.60;;;;;;5016985;28;20030;-87
2021/08/04 08:51:59;;;;;;;1.92;1.35;;;19.00;79.60;;;;;;5017784;28;20092;-89
2021/08/04 08:54:26;;;;;;;3.42;1.30;;;19.00;80.20;;;;;;5015309;28;20037;-90
2021/08/04 08:56:52;;;;;;;4.47;1.30;;;19.10;79.40;;;;;;5015132;28;20030;-88
2021/08/04 08:59:18;;;;;;;2.70;1.20;;;19.10;80.60;;;;;;5015614;28;20028;-86
2021/08/04 09:01:44;;;;;;;2.83;1.70;;;19.20;79.30;;;;;;5015220;28;20554;-85
2021/08/04 09:04:15;;;;;;;1.48;1.05;;;19.30;78.80;;;;;;5015946;28;20030;-88
2021/08/04 09:06:59;;;;;;;2.22;1.30;;;19.40;77.70;;;;;;5016235;28;20030;-86
2021/08/04 09:09:30;;;;;;;2.80;1.35;;;19.50;77.00;;;;;;5016067;28;20084;-88
2021/08/04 09:12:10;;;;;;;1.95;1.33;;;19.50;77.30;;;;;;5019941;28;20030;-87
2021/08/04 09:14:38;;;;;;;4.53;1.40;;;19.60;75.90;;;;;;5021317;28;20022;-87
2021/08/04 09:17:08;;;;;;;1.80;1.30;;;19.70;75.80;;;;;;5037459;28;20034;-89
2021/08/04 09:19:53;;;;;;;2.92;1.33;;;19.70;74.30;;;;;;5033021;28;20022;-84
2021/08/04 09:22:24;;;;;;;2.35;1.20;;;19.70;73.40;;;;;;5023291;28;20486;-81
2021/08/04 09:24:56;;;;;;;2.40;1.30;;;19.80;73.40;;;;;;5013356;28;20040;-81
2021/08/04 09:27:51;;;;;;;1.13;1.00;;;19.90;74.10;;;;;;5013343;28;20026;-82
2021/08/04 09:30:25;;;;;;;2.88;1.10;;;19.90;74.40;;;;;;5029755;28;20052;-82
2021/08/04 09:32:51;;;;;;;2.50;1.00;;;19.80;74.10;;;;;;5013928;28;20038;-81
2021/08/04 09:35:20;;;;;;;2.15;1.20;;;19.90;74.80;;;;;;5013806;28;20032;-84
2021/08/04 09:37:47;;;;;;;3.13;1.48;;;20.00;74.90;;;;;;5013634;28;20108;-83
2021/08/04 09:40:16;;;;;;;1.98;1.25;;;20.00;74.10;;;;;;5016874;28;20121;-92
2021/08/04 09:42:44;;;;;;;1.20;0.93;;;20.00;72.50;;;;;;5017531;28;20524;-90
2021/08/04 09:45:10;;;;;;;2.10;1.20;;;20.00;72.50;;;;;;5022189;28;20030;-95
2021/08/04 09:47:36;;;;;;;1.80;1.35;;;20.00;73.20;;;;;;5017828;28;20022;-91
2021/08/04 09:50:06;;;;;;;3.22;1.45;;;20.10;73.60;;;;;;5014565;28;20117;-87
2021/08/04 09:52:35;;;;;;;3.40;1.40;;;20.10;74.30;;;;;;5014758;28;20034;-91
2021/08/04 09:55:19;;;;;;;3.85;1.55;;;20.20;74.10;;;;;;5016792;28;20037;-88
2021/08/04 09:57:51;;;;;;;2.10;1.33;;;20.30;72.90;;;;;;5013503;28;20034;-88
2021/08/04 10:00:19;;;;;;;2.10;1.40;;;20.20;72.50;;;;;;5016166;28;20047;-88
2021/08/04 10:02:46;;;;;;;1.80;1.08;;;20.30;72.50;;;;;;5013405;28;20041;-89
2021/08/04 10:05:19;;;;;;;1.48;1.08;;;20.40;72.10;;;;;;5014256;28;20069;-89
2021/08/04 10:08:00;;;;;;;1.80;1.00;;;20.30;72.20;;;;;;5013204;28;20022;-85
2021/08/04 10:10:26;;;;;;;1.42;1.25;;;20.30;71.90;;;;;;5028542;28;20022;-87
2021/08/04 10:12:56;;;;;;;2.03;1.00;;;20.40;72.60;;;;;;5004524;28;20248;-84
2021/08/04 10:15:22;;;;;;;2.63;1.30;;;20.40;72.30;;;;;;5029724;28;20464;-83
2021/08/04 10:17:50;;;;;;;1.98;1.25;;;20.30;72.00;;;;;;5012622;28;20026;-84
2021/08/04 10:20:16;;;;;;;2.83;1.40;;;20.30;72.10;;;;;;5013380;28;20459;-87
2021/08/04 10:22:43;;;;;;;2.80;1.30;;;20.20;71.70;;;;;;5011711;28;20080;-86
2021/08/04 10:25:09;;;;;;;1.80;1.10;;;20.20;72.10;;;;;;5013169;28;20034;-88
2021/08/04 10:27:35;;;;;;;1.40;1.10;;;20.10;72.70;;;;;;5009883;28;20080;-91
2021/08/04 10:30:02;;;;;;;2.83;1.20;;;20.20;73.00;;;;;;5013741;28;20030;-90
2021/08/04 10:32:28;;;;;;;1.95;1.08;;;20.20;73.10;;;;;;5013393;28;20109;-90
2021/08/04 10:34:56;;;;;;;2.10;0.80;;;20.30;71.10;;;;;;5012511;28;20191;-86
2021/08/04 10:37:24;;;;;;;1.40;1.00;;;20.20;71.10;;;;;;5012477;28;20057;-92
2021/08/04 10:39:51;;;;;;;1.42;1.00;;;20.30;72.70;;;;;;5012645;28;20026;-87
2021/08/04 10:42:16;;;;;;;1.50;0.95;;;20.40;71.20;;;;;;5014139;28;20080;-85
2021/08/04 10:44:44;;;;;;;1.35;0.85;;;20.40;66.20;;;;;;5002255;28;20121;-87
2021/08/04 10:47:36;;;;;;;3.40;1.00;;;20.40;65.10;;;;;;4993257;28;20065;-86
2021/08/04 10:50:09;;;;;;;;;;;20.40;63.80;;;;;;4996184;28;20037;-86
2021/08/04 10:52:35;;;;;;;1.17;0.80;;;20.40;64.20;;;;;;5012385;28;19912;-91
2021/08/04 10:55:09;;;;;;;2.45;1.02;;;20.40;65.70;;;;;;5012311;28;20026;-89
2021/08/04 10:58:03;;;;;;;1.35;0.95;;;20.40;67.00;;;;;;5012837;28;20053;-89
2021/08/04 11:00:29;;;;;;;1.42;1.00;;;20.50;65.50;;;;;;5013000;28;20061;-90
2021/08/04 11:02:55;;;;;;;1.98;0.70;;;20.40;68.10;;;;;;5014351;28;20038;-89
2021/08/04 11:05:21;;;;;;;1.95;0.98;;;20.40;67.70;;;;;;5013641;28;20045;-90
2021/08/04 11:08:23;;;;;;;0.90;0.88;;;20.40;66.90;;;;;;5012020;28;20065;-87
2021/08/04 11:10:49;;;;;;;3.78;1.20;;;20.40;66.00;;;;;;5004531;28;20033;-88
2021/08/04 11:13:49;;;;;;;1.88;0.93;;;20.60;67.60;;;;;;5012858;28;20034;-90
2021/08/04 11:16:33;;;;;;;2.28;0.90;;;20.70;67.60;;;;;;5012752;28;20025;-87
2021/08/04 11:18:59;;;;;;;1.42;1.05;;;20.70;67.20;;;;;;5012561;28;20029;-90
2021/08/04 11:21:25;;;;;;;1.40;0.88;;;20.70;71.10;;;;;;5013846;28;20513;-91
2021/08/04 11:23:51;;;;;;;1.30;0.98;;;20.80;68.50;;;;;;5013329;28;20034;-90
2021/08/04 11:26:30;;;;;;;1.23;1.02;;;20.70;67.10;;;;;;5012930;28;20022;-92
2021/08/04 11:28:57;;;;;;;4.20;1.20;;;20.70;67.50;;;;;;5013183;28;20455;-93
2021/08/04 11:31:23;;;;;;;2.70;0.95;;;20.70;67.30;;;;;;5012864;28;20030;-93
2021/08/04 11:33:50;;;;;;;0.95;0.93;;;20.80;67.80;;;;;;5011989;28;20379;-92
2021/08/04 11:36:21;;;;;;;1.60;0.90;;;20.80;67.30;;;;;;5012298;28;20054;-92
2021/08/04 11:38:50;;;;;;;1.90;0.98;;;21.00;68.10;;;;;;5012940;28;20017;-92
2021/08/04 11:41:24;;;;;;;2.20;1.15;;;21.00;67.10;;;;;;5013288;28;20447;-92
2021/08/04 11:44:00;;;;;;;1.48;1.15;;;21.20;66.70;;;;;;5012827;28;20034;-86
2021/08/04 11:46:33;;;;;;;2.42;0.95;;;21.30;66.50;;;;;;5012510;28;20044;-88
2021/08/04 11:49:00;;;;;;;4.22;1.05;;;21.40;66.10;;;;;;5013547;28;20029;-90
2021/08/04 11:51:37;;;;;;;1.38;1.00;;;21.50;67.70;;;;;;5007637;28;20026;-87
2021/08/04 11:54:05;;;;;;;0.93;0.80;;;21.60;68.60;;;;;;5011111;28;20014;-89
2021/08/04 11:56:30;;;;;;;2.40;0.77;;;21.60;66.10;;;;;;5009683;28;20027;-87
2021/08/04 11:59:04;;;;;;;2.08;1.00;;;21.70;65.10;;;;;;5020115;28;20080;-85
2021/08/04 12:01:30;;;;;;;1.77;0.90;;;21.70;64.90;;;;;;5013521;28;20064;-89
2021/08/04 12:04:09;;;;;;;1.40;1.00;;;21.80;64.20;;;;;;5011976;28;20084;-87
2021/08/04 12:06:37;;;;;;;0.95;0.85;;;21.80;63.40;;;;;;5011809;28;20034;-89
2021/08/04 12:09:20;;;;;;;1.42;1.00;;;21.80;64.50;;;;;;5011621;28;20026;-88
2021/08/04 12:11:46;;;;;;;0.85;0.77;;;21.80;64.40;;;;;;5014958;28;20057;-91
2021/08/04 12:14:13;;;;;;;1.60;0.80;;;21.90;64.60;;;;;;5015907;28;20060;-87
2021/08/04 12:16:48;;;;;;;0.80;0.80;;;22.00;64.70;;;;;;5015113;28;20116;-87
2021/08/04 12:19:40;;;;;;;0.90;0.80;;;22.10;64.40;;;;;;5015672;28;20022;-88
2021/08/04 12:22:08;;;;;;;0.98;0.80;;;22.20;62.60;;;;;;5000812;28;20026;-86
2021/08/04 12:24:42;;;;;;;1.55;0.80;;;22.30;61.50;;;;;;5015491;28;20041;-86
2021/08/04 12:27:08;;;;;;;1.20;0.73;;;22.40;61.00;;;;;;5015378;28;20092;-86
2021/08/04 12:29:34;;;;;;;2.17;0.90;;;22.60;61.30;;;;;;5014953;28;20022;-88
2021/08/04 12:32:05;;;;;;;2.00;0.95;;;22.60;60.70;;;;;;5015900;28;20021;-92
2021/08/04 12:34:32;;;;;;;1.37;1.00;;;22.70;60.20;;;;;;5017391;28;20014;-91
2021/08/04 12:37:00;;;;;;;2.03;0.82;;;22.80;59.90;;;;;;5016587;28;20070;-93
2021/08/04 12:39:30;;;;;;;1.33;0.90;;;22.90;60.40;;;;;;5016796;28;20029;-87
2021/08/04 12:41:55;;;;;;;2.15;0.80;;;22.90;60.10;;;;;;5001723;28;20040;-92
2021/08/04 12:44:23;;;;;;;2.13;0.90;;;22.90;60.30;;;;;;5014471;28;20113;-91
2021/08/04 12:46:49;;;;;;;2.00;0.70;;;22.80;61.10;;;;;;5012446;28;20033;-87
2021/08/04 12:49:17;;;;;;;0.98;0.88;;;22.90;62.50;;;;;;5015261;28;20026;-84
2021/08/04 12:51:54;;;;;;;2.55;1.05;;;23.00;61.20;;;;;;5015931;28;20474;-85
2021/08/04 12:54:40;;;;;;;1.35;0.80;;;22.90;60.30;;;;;;5016380;28;20033;-87